PWSweather.com
Personal Weather Stations
Station Observations
KIDJEROME
Sse Jerome Butte , Jerome, ID 83338

Sse Jerome Butte Jerome, ID 83338

Lat: 42.6981891, Lon: -114.4041362

Elevation: 3960

Station Type: Davis Vantage Pro 2

Latest ConditionsUpdated 7:00:08 PM MDT Saturday, Apr 29, 2017
Currently Today's Max Today's Min Today's Average
Temperature 56.6°F13.7°C 58.0°F14.4°C 28.7°F-1.8°C 43.0°F6.1°C
Dew Point 26.3°F-3.2°C 36.6°F2.6°C 25.8°F-3.4°C 29.9°F-1.2°C
Winds 7.0 mph WNW11.3 kmh WNW 13.0 mph WSW20.9 kmh WSW - 5.5 mph 8.9 kmh
Wind Gusts 12.0 mph19.3 kmh 19.0 mph30.6 kmh - -
Humidity 31% 90% 30% 64%
Pressure 30.13 in1020.3 mb 30.24 in1024.0 mb 30.08 in1018.6 mb -
Hour Temp Dew Point Humidity Winds Wind Gusts Pressure Precip Precip Rate Daily Precip Total
07:00 PM 56.6°F13.7°C 26.3°F-3.2°C 31% 7.0 mph WNW11.3 kmh WNW 12.0 mph19.3 kmh 30.13 in1020.3 mb 0.00 in0.0 mm 0.00 in0.0 mm 0.00 in0.0 mm
06:45 PM 54.8°F12.7°C 29.1°F-1.6°C 37% 8.0 mph WNW12.9 kmh WNW 12.0 mph19.3 kmh 30.12 in1020.0 mb 0.00 in0.0 mm 0.00 in0.0 mm 0.00 in0.0 mm
06:30 PM 55.5°F13.1°C 27.6°F-2.4°C 34% 7.0 mph WSW11.3 kmh WSW 15.0 mph24.1 kmh 30.12 in1020.0 mb 0.00 in0.0 mm 0.00 in0.0 mm 0.00 in0.0 mm
06:15 PM 57.9°F14.4°C 27.5°F-2.5°C 31% 12.0 mph WSW19.3 kmh WSW 15.0 mph24.1 kmh 30.12 in1020.0 mb 0.00 in0.0 mm 0.00 in0.0 mm 0.00 in0.0 mm
06:00 PM 57.9°F14.4°C 26.7°F-2.9°C 30% 9.0 mph WNW14.5 kmh WNW 16.0 mph25.7 kmh 30.13 in1020.3 mb 0.00 in0.0 mm 0.00 in0.0 mm 0.00 in0.0 mm
05:45 PM 56.4°F13.6°C 29.1°F-1.6°C 35% 9.0 mph WNW14.5 kmh WNW 16.0 mph25.7 kmh 30.13 in1020.3 mb 0.00 in0.0 mm 0.00 in0.0 mm 0.00 in0.0 mm
05:30 PM 57.6°F14.2°C 30.9°F-0.6°C 36% 13.0 mph WNW20.9 kmh WNW 18.0 mph29.0 kmh 30.13 in1020.3 mb 0.00 in0.0 mm 0.00 in0.0 mm 0.00 in0.0 mm
05:15 PM 58.0°F14.4°C 33.2°F0.7°C 39% 6.0 mph WSW9.7 kmh WSW 16.0 mph25.7 kmh 30.14 in1020.7 mb 0.00 in0.0 mm 0.00 in0.0 mm 0.00 in0.0 mm
05:00 PM 57.6°F14.2°C 30.9°F-0.6°C 36% 5.0 mph WNW8.0 kmh WNW 18.0 mph29.0 kmh 30.14 in1020.7 mb 0.00 in0.0 mm 0.00 in0.0 mm 0.00 in0.0 mm
04:45 PM 57.1°F13.9°C 30.4°F-0.9°C 36% 8.0 mph WSW12.9 kmh WSW 15.0 mph24.1 kmh 30.15 in1021.0 mb 0.00 in0.0 mm 0.00 in0.0 mm 0.00 in0.0 mm
04:30 PM 56.9°F13.8°C 30.9°F-0.6°C 37% 4.0 mph WSW6.4 kmh WSW 18.0 mph29.0 kmh 30.15 in1021.0 mb 0.00 in0.0 mm 0.00 in0.0 mm 0.00 in0.0 mm
04:15 PM 56.9°F13.8°C 31.6°F-0.2°C 38% 8.0 mph WNW12.9 kmh WNW 18.0 mph29.0 kmh 30.16 in1021.3 mb 0.00 in0.0 mm 0.00 in0.0 mm 0.00 in0.0 mm
04:00 PM 57.0°F13.9°C 34.8°F1.6°C 43% 10.0 mph W16.1 kmh W 19.0 mph30.6 kmh 30.16 in1021.3 mb 0.00 in0.0 mm 0.00 in0.0 mm 0.00 in0.0 mm
03:45 PM 56.1°F13.4°C 32.7°F0.4°C 41% 11.0 mph WSW17.7 kmh WSW 19.0 mph30.6 kmh 30.17 in1021.7 mb 0.00 in0.0 mm 0.00 in0.0 mm 0.00 in0.0 mm
03:30 PM 56.5°F13.6°C 31.2°F-0.4°C 38% 8.0 mph NW12.9 kmh NW 19.0 mph30.6 kmh 30.17 in1021.7 mb 0.00 in0.0 mm 0.00 in0.0 mm 0.00 in0.0 mm
03:15 PM 56.2°F13.4°C 31.0°F-0.6°C 38% 8.0 mph W12.9 kmh W 16.0 mph25.7 kmh 30.18 in1022.0 mb 0.00 in0.0 mm 0.00 in0.0 mm 0.00 in0.0 mm
03:00 PM 56.0°F13.3°C 30.8°F-0.7°C 38% 10.0 mph NW16.1 kmh NW 17.0 mph27.4 kmh 30.18 in1022.0 mb 0.00 in0.0 mm 0.00 in0.0 mm 0.00 in0.0 mm
02:45 PM 55.3°F12.9°C 31.4°F-0.3°C 40% 12.0 mph W19.3 kmh W 17.0 mph27.4 kmh 30.18 in1022.0 mb 0.00 in0.0 mm 0.00 in0.0 mm 0.00 in0.0 mm
02:30 PM 55.6°F13.1°C 34.1°F1.2°C 44% 13.0 mph WSW20.9 kmh WSW 16.0 mph25.7 kmh 30.18 in1022.0 mb 0.00 in0.0 mm 0.00 in0.0 mm 0.00 in0.0 mm
02:15 PM 54.3°F12.4°C 31.7°F-0.2°C 42% 4.0 mph SW6.4 kmh SW 16.0 mph25.7 kmh 30.19 in1022.4 mb 0.00 in0.0 mm 0.00 in0.0 mm 0.00 in0.0 mm
02:00 PM 54.4°F12.4°C 33.0°F0.6°C 44% 11.0 mph W17.7 kmh W 18.0 mph29.0 kmh 30.20 in1022.7 mb 0.00 in0.0 mm 0.00 in0.0 mm 0.00 in0.0 mm
01:45 PM 54.1°F12.3°C 31.5°F-0.3°C 42% 11.0 mph WNW17.7 kmh WNW 18.0 mph29.0 kmh 30.20 in1022.7 mb 0.00 in0.0 mm 0.00 in0.0 mm 0.00 in0.0 mm
01:30 PM 53.6°F12.0°C 32.8°F0.4°C 45% 7.0 mph W11.3 kmh W 17.0 mph27.4 kmh 30.20 in1022.7 mb 0.00 in0.0 mm 0.00 in0.0 mm 0.00 in0.0 mm
01:15 PM 52.9°F11.6°C 32.7°F0.4°C 46% 9.0 mph SW14.5 kmh SW 14.0 mph22.5 kmh 30.20 in1022.7 mb 0.00 in0.0 mm 0.00 in0.0 mm 0.00 in0.0 mm
01:00 PM 51.8°F11.0°C 31.7°F-0.2°C 46% 4.0 mph NW6.4 kmh NW 16.0 mph25.7 kmh 30.21 in1023.0 mb 0.00 in0.0 mm 0.00 in0.0 mm 0.00 in0.0 mm
12:45 PM 51.9°F11.1°C 33.9°F1.1°C 50% 11.0 mph WNW17.7 kmh WNW 12.0 mph19.3 kmh 30.21 in1023.0 mb 0.00 in0.0 mm 0.00 in0.0 mm 0.00 in0.0 mm
12:30 PM 50.9°F10.5°C 32.4°F0.2°C 49% 4.0 mph WSW6.4 kmh WSW 15.0 mph24.1 kmh 30.22 in1023.4 mb 0.00 in0.0 mm 0.00 in0.0 mm 0.00 in0.0 mm
12:15 PM 49.9°F9.9°C 32.0°F0.0°C 50% 10.0 mph WSW16.1 kmh WSW 14.0 mph22.5 kmh 30.22 in1023.4 mb 0.00 in0.0 mm 0.00 in0.0 mm 0.00 in0.0 mm
12:00 PM 50.4°F10.2°C 36.6°F2.6°C 59% 10.0 mph WSW16.1 kmh WSW 15.0 mph24.1 kmh 30.23 in1023.7 mb 0.00 in0.0 mm 0.00 in0.0 mm 0.00 in0.0 mm
11:45 AM 49.1°F9.5°C 34.1°F1.2°C 56% 12.0 mph WSW19.3 kmh WSW 15.0 mph24.1 kmh 30.23 in1023.7 mb 0.00 in0.0 mm 0.00 in0.0 mm 0.00 in0.0 mm
11:30 AM 47.8°F8.8°C 31.5°F-0.3°C 53% 8.0 mph WSW12.9 kmh WSW 17.0 mph27.4 kmh 30.23 in1023.7 mb 0.00 in0.0 mm 0.00 in0.0 mm 0.00 in0.0 mm
11:15 AM 48.4°F9.1°C 33.9°F1.1°C 57% 12.0 mph WNW19.3 kmh WNW 15.0 mph24.1 kmh 30.23 in1023.7 mb 0.00 in0.0 mm 0.00 in0.0 mm 0.00 in0.0 mm
11:00 AM 46.9°F8.3°C 33.3°F0.7°C 59% 10.0 mph W16.1 kmh W 16.0 mph25.7 kmh 30.23 in1023.7 mb 0.00 in0.0 mm 0.00 in0.0 mm 0.00 in0.0 mm
10:45 AM 46.3°F7.9°C 33.2°F0.7°C 60% 11.0 mph WSW17.7 kmh WSW 15.0 mph24.1 kmh 30.23 in1023.7 mb 0.00 in0.0 mm 0.00 in0.0 mm 0.00 in0.0 mm
10:30 AM 45.0°F7.2°C 33.2°F0.7°C 63% 5.0 mph WSW8.0 kmh WSW 17.0 mph27.4 kmh 30.23 in1023.7 mb 0.00 in0.0 mm 0.00 in0.0 mm 0.00 in0.0 mm
10:15 AM 44.3°F6.8°C 32.1°F0.1°C 62% 10.0 mph WSW16.1 kmh WSW 17.0 mph27.4 kmh 30.23 in1023.7 mb 0.00 in0.0 mm 0.00 in0.0 mm 0.00 in0.0 mm
10:00 AM 43.8°F6.6°C 32.0°F0.0°C 63% 11.0 mph W17.7 kmh W 16.0 mph25.7 kmh 30.24 in1024.0 mb 0.00 in0.0 mm 0.00 in0.0 mm 0.00 in0.0 mm
09:45 AM 42.7°F5.9°C 31.8°F-0.1°C 65% 8.0 mph W12.9 kmh W 16.0 mph25.7 kmh 30.24 in1024.0 mb 0.00 in0.0 mm 0.00 in0.0 mm 0.00 in0.0 mm
09:30 AM 41.8°F5.4°C 32.0°F0.0°C 68% 10.0 mph WSW16.1 kmh WSW 13.0 mph20.9 kmh 30.24 in1024.0 mb 0.00 in0.0 mm 0.00 in0.0 mm 0.00 in0.0 mm
09:15 AM 40.6°F4.8°C 32.0°F0.0°C 71% 7.0 mph WSW11.3 kmh WSW 13.0 mph20.9 kmh 30.23 in1023.7 mb 0.00 in0.0 mm 0.00 in0.0 mm 0.00 in0.0 mm
09:00 AM 40.2°F4.6°C 31.6°F-0.2°C 71% 5.0 mph WSW8.0 kmh WSW 14.0 mph22.5 kmh 30.24 in1024.0 mb 0.00 in0.0 mm 0.00 in0.0 mm 0.00 in0.0 mm
08:45 AM 39.1°F3.9°C 31.9°F-0.1°C 75% 4.0 mph WSW6.4 kmh WSW 7.0 mph11.3 kmh 30.24 in1024.0 mb 0.00 in0.0 mm 0.00 in0.0 mm 0.00 in0.0 mm
08:30 AM 37.5°F3.1°C 31.3°F-0.4°C 78% 1.0 mph S1.6 kmh S 1.0 mph1.6 kmh 30.24 in1024.0 mb 0.00 in0.0 mm 0.00 in0.0 mm 0.00 in0.0 mm
08:15 AM 32.9°F0.5°C 28.6°F-1.9°C 84% Calm Calm -- 30.24 in1024.0 mb 0.00 in0.0 mm 0.00 in0.0 mm 0.00 in0.0 mm
08:00 AM 32.4°F0.2°C 27.8°F-2.3°C 83% Calm Calm -- 30.22 in1023.4 mb 0.00 in0.0 mm 0.00 in0.0 mm 0.00 in0.0 mm
07:45 AM 34.7°F1.5°C 28.6°F-1.9°C 78% Calm Calm -- 30.22 in1023.4 mb 0.00 in0.0 mm 0.00 in0.0 mm 0.00 in0.0 mm
07:30 AM 34.9°F1.6°C 29.1°F-1.6°C 79% Calm Calm -- 30.21 in1023.0 mb 0.00 in0.0 mm 0.00 in0.0 mm 0.00 in0.0 mm
07:15 AM 31.2°F-0.4°C 27.8°F-2.3°C 87% Calm Calm -- 30.21 in1023.0 mb 0.00 in0.0 mm 0.00 in0.0 mm 0.00 in0.0 mm
07:00 AM 29.9°F-1.2°C 26.8°F-2.9°C 88% Calm Calm 1.0 mph1.6 kmh 30.20 in1022.7 mb 0.00 in0.0 mm 0.00 in0.0 mm 0.00 in0.0 mm
06:45 AM 28.7°F-1.8°C 26.1°F-3.3°C 90% Calm Calm -- 30.20 in1022.7 mb 0.00 in0.0 mm 0.00 in0.0 mm 0.00 in0.0 mm
06:30 AM 29.2°F-1.6°C 25.8°F-3.4°C 87% Calm Calm 3.0 mph4.8 kmh 30.19 in1022.4 mb 0.00 in0.0 mm 0.00 in0.0 mm 0.00 in0.0 mm
06:15 AM 29.4°F-1.4°C 26.0°F-3.3°C 87% 3.0 mph W4.8 kmh W 3.0 mph4.8 kmh 30.18 in1022.0 mb 0.00 in0.0 mm 0.00 in0.0 mm 0.00 in0.0 mm
06:00 AM 30.0°F-1.1°C 26.6°F-3.0°C 87% Calm Calm 3.0 mph4.8 kmh 30.18 in1022.0 mb 0.00 in0.0 mm 0.00 in0.0 mm 0.00 in0.0 mm
05:45 AM 29.9°F-1.2°C 26.5°F-3.1°C 87% Calm Calm 3.0 mph4.8 kmh 30.17 in1021.7 mb 0.00 in0.0 mm 0.00 in0.0 mm 0.00 in0.0 mm
05:30 AM 30.4°F-0.9°C 27.0°F-2.8°C 87% 2.0 mph W3.2 kmh W 3.0 mph4.8 kmh 30.17 in1021.7 mb 0.00 in0.0 mm 0.00 in0.0 mm 0.00 in0.0 mm
05:15 AM 30.0°F-1.1°C 26.6°F-3.0°C 87% 3.0 mph W4.8 kmh W 3.0 mph4.8 kmh 30.17 in1021.7 mb 0.00 in0.0 mm 0.00 in0.0 mm 0.00 in0.0 mm
05:00 AM 30.3°F-0.9°C 26.6°F-3.0°C 86% 2.0 mph W3.2 kmh W 3.0 mph4.8 kmh 30.17 in1021.7 mb 0.00 in0.0 mm 0.00 in0.0 mm 0.00 in0.0 mm
04:45 AM 30.5°F-0.8°C 26.5°F-3.1°C 85% 2.0 mph W3.2 kmh W 3.0 mph4.8 kmh 30.16 in1021.3 mb 0.00 in0.0 mm 0.00 in0.0 mm 0.00 in0.0 mm
04:30 AM 30.4°F-0.9°C 26.7°F-2.9°C 86% Calm Calm 3.0 mph4.8 kmh 30.16 in1021.3 mb 0.00 in0.0 mm 0.00 in0.0 mm 0.00 in0.0 mm
04:15 AM 30.8°F-0.7°C 27.1°F-2.7°C 86% 2.0 mph W3.2 kmh W 3.0 mph4.8 kmh 30.15 in1021.0 mb 0.00 in0.0 mm 0.00 in0.0 mm 0.00 in0.0 mm
04:00 AM 31.0°F-0.6°C 27.0°F-2.8°C 85% 2.0 mph W3.2 kmh W 4.0 mph6.4 kmh 30.15 in1021.0 mb 0.00 in0.0 mm 0.00 in0.0 mm 0.00 in0.0 mm
03:45 AM 31.7°F-0.2°C 27.7°F-2.4°C 85% 3.0 mph WSW4.8 kmh WSW 4.0 mph6.4 kmh 30.14 in1020.7 mb 0.00 in0.0 mm 0.00 in0.0 mm 0.00 in0.0 mm
03:30 AM 31.8°F-0.1°C 27.5°F-2.5°C 84% 3.0 mph W4.8 kmh W 4.0 mph6.4 kmh 30.14 in1020.7 mb 0.00 in0.0 mm 0.00 in0.0 mm 0.00 in0.0 mm
03:15 AM 31.7°F-0.2°C 27.1°F-2.7°C 83% 2.0 mph W3.2 kmh W 3.0 mph4.8 kmh 30.14 in1020.7 mb 0.00 in0.0 mm 0.00 in0.0 mm 0.00 in0.0 mm
03:00 AM 32.1°F0.1°C 27.8°F-2.3°C 84% 3.0 mph W4.8 kmh W 3.0 mph4.8 kmh 30.14 in1020.7 mb 0.00 in0.0 mm 0.00 in0.0 mm 0.00 in0.0 mm
02:45 AM 31.2°F-0.4°C 27.2°F-2.7°C 85% 2.0 mph W3.2 kmh W 3.0 mph4.8 kmh 30.13 in1020.3 mb 0.00 in0.0 mm 0.00 in0.0 mm 0.00 in0.0 mm
02:30 AM 31.2°F-0.4°C 27.5°F-2.5°C 86% Calm Calm 2.0 mph3.2 kmh 30.13 in1020.3 mb 0.00 in0.0 mm 0.00 in0.0 mm 0.00 in0.0 mm
02:15 AM 30.7°F-0.7°C 26.7°F-2.9°C 85% Calm Calm 1.0 mph1.6 kmh 30.13 in1020.3 mb 0.00 in0.0 mm 0.00 in0.0 mm 0.00 in0.0 mm
02:00 AM 31.3°F-0.4°C 27.0°F-2.8°C 84% Calm Calm 2.0 mph3.2 kmh 30.12 in1020.0 mb 0.00 in0.0 mm 0.00 in0.0 mm 0.00 in0.0 mm
01:45 AM 31.5°F-0.3°C 27.2°F-2.7°C 84% Calm Calm 1.0 mph1.6 kmh 30.13 in1020.3 mb 0.00 in0.0 mm 0.00 in0.0 mm 0.00 in0.0 mm
01:30 AM 32.7°F0.4°C 27.5°F-2.5°C 81% 1.0 mph W1.6 kmh W 4.0 mph6.4 kmh 30.12 in1020.0 mb 0.00 in0.0 mm 0.00 in0.0 mm 0.00 in0.0 mm
01:15 AM 33.1°F0.6°C 27.6°F-2.4°C 80% 2.0 mph W3.2 kmh W 4.0 mph6.4 kmh 30.11 in1019.6 mb 0.00 in0.0 mm 0.00 in0.0 mm 0.00 in0.0 mm
01:00 AM 36.3°F2.4°C 30.1°F-1.1°C 78% 3.0 mph WSW4.8 kmh WSW 9.0 mph14.5 kmh 30.10 in1019.3 mb 0.00 in0.0 mm 0.00 in0.0 mm 0.00 in0.0 mm
12:45 AM 37.9°F3.3°C 31.0°F-0.6°C 76% 4.0 mph W6.4 kmh W 9.0 mph14.5 kmh 30.09 in1019.0 mb 0.00 in0.0 mm 0.00 in0.0 mm 0.00 in0.0 mm
12:30 AM 39.0°F3.9°C 31.1°F-0.5°C 73% 7.0 mph WNW11.3 kmh WNW 15.0 mph24.1 kmh 30.08 in1018.6 mb 0.00 in0.0 mm 0.00 in0.0 mm 0.00 in0.0 mm
12:15 AM 39.7°F4.3°C 31.4°F-0.3°C 72% 7.0 mph WNW11.3 kmh WNW 15.0 mph24.1 kmh 30.08 in1018.6 mb 0.00 in0.0 mm 0.00 in0.0 mm 0.00 in0.0 mm
12:00 AM 40.3°F4.6°C 31.3°F-0.4°C 70% 9.0 mph WNW14.5 kmh WNW 19.0 mph30.6 kmh 30.08 in1018.6 mb 0.00 in0.0 mm 0.00 in0.0 mm 0.00 in0.0 mm